Time;durP1;ratioP1;P1;durP2;ratioP2;P2;SDS_P1;SDS_P2;PMS_P1;PMS_P2;Temp;Humidity;BMP_temperature;BMP_pressure;BME280_temperature;BME280_humidity;BME280_pressure;Samples;Min_cycle;Max_cycle;Signal;HPM_P1;HPM_P2
2022/07/19 00:01:07;;;;;;;3.50;1.80;;;25.20;37.70;;;;;;5042328;28;20513;-47
2022/07/19 00:03:34;;;;;;;6.55;2.35;;;25.10;37.70;;;;;;5044266;28;20412;-48
2022/07/19 00:06:02;;;;;;;3.42;2.08;;;25.10;37.80;;;;;;5038739;28;20064;-54
2022/07/19 00:08:29;;;;;;;1.95;1.63;;;25.00;37.70;;;;;;5042523;28;20528;-50
2022/07/19 00:10:57;;;;;;;3.90;1.80;;;25.10;37.90;;;;;;5042975;28;20056;-48
2022/07/19 00:13:24;;;;;;;4.60;2.00;;;25.00;37.70;;;;;;5042910;28;20049;-54
2022/07/19 00:15:53;;;;;;;5.18;2.20;;;25.00;37.90;;;;;;5035320;28;20045;-49
2022/07/19 00:18:21;;;;;;;2.90;2.10;;;24.90;37.90;;;;;;5042895;28;20048;-53
2022/07/19 00:20:48;;;;;;;4.15;1.90;;;24.90;38.00;;;;;;5042510;28;20053;-52
2022/07/19 00:23:16;;;;;;;5.25;2.10;;;24.90;37.90;;;;;;5042604;28;20063;-56
2022/07/19 00:25:43;;;;;;;2.97;1.65;;;24.80;37.80;;;;;;5036596;28;20057;-52
2022/07/19 00:28:11;;;;;;;7.22;2.03;;;24.80;38.00;;;;;;5041181;28;20053;-50
2022/07/19 00:30:38;;;;;;;6.90;1.80;;;24.80;37.80;;;;;;5040634;28;20056;-49
2022/07/19 00:33:08;;;;;;;4.63;1.85;;;24.80;38.00;;;;;;5039711;28;20060;-49
2022/07/19 00:35:36;;;;;;;3.53;1.83;;;24.70;38.10;;;;;;5041084;28;20040;-47
2022/07/19 00:38:05;;;;;;;5.00;2.05;;;24.70;38.00;;;;;;5038497;28;20048;-47
2022/07/19 00:40:33;;;;;;;4.55;1.92;;;24.70;38.00;;;;;;5040956;28;20052;-50
2022/07/19 00:43:00;;;;;;;2.88;1.92;;;24.70;38.00;;;;;;5042027;28;20061;-52
2022/07/19 00:45:28;;;;;;;2.88;1.85;;;24.60;38.10;;;;;;5036360;28;21522;-50
2022/07/19 00:47:55;;;;;;;6.97;2.42;;;24.60;38.30;;;;;;5041471;28;20057;-49
2022/07/19 00:50:24;;;;;;;2.40;1.90;;;24.60;38.70;;;;;;5040841;28;20428;-53
2022/07/19 00:52:56;;;;;;;3.45;1.90;;;24.50;38.30;;;;;;5041570;28;20060;-49
2022/07/19 00:55:25;;;;;;;4.82;1.90;;;24.50;38.30;;;;;;5037899;28;20412;-48
2022/07/19 00:57:53;;;;;;;4.45;2.28;;;24.50;38.40;;;;;;5041695;28;20397;-51
2022/07/19 01:00:21;;;;;;;4.95;1.83;;;24.40;38.50;;;;;;5040324;28;20064;-53
2022/07/19 01:02:49;;;;;;;3.40;2.10;;;24.40;38.60;;;;;;5041612;28;20409;-51
2022/07/19 01:05:16;;;;;;;3.97;2.10;;;24.40;38.60;;;;;;5042117;28;20056;-53
2022/07/19 01:07:46;;;;;;;3.95;2.10;;;24.40;38.80;;;;;;5037493;28;20057;-47
2022/07/19 01:10:15;;;;;;;7.25;2.05;;;24.30;38.80;;;;;;5040893;28;20417;-49
2022/07/19 01:12:43;;;;;;;4.55;1.95;;;24.30;38.80;;;;;;5042663;28;20056;-50
2022/07/19 01:15:16;;;;;;;3.80;2.35;;;24.30;38.90;;;;;;5039615;28;20049;-51
2022/07/19 01:17:43;;;;;;;5.35;2.30;;;24.30;38.90;;;;;;5037450;28;20409;-51
2022/07/19 01:20:11;;;;;;;5.47;2.00;;;24.30;39.00;;;;;;5042202;28;20063;-50
2022/07/19 01:22:41;;;;;;;3.75;2.10;;;24.20;38.90;;;;;;5039343;28;20049;-54
2022/07/19 01:25:09;;;;;;;2.58;1.58;;;24.20;39.10;;;;;;5038378;28;20053;-47
2022/07/19 01:27:40;;;;;;;6.63;2.40;;;24.10;39.10;;;;;;5037379;28;20065;-51
2022/07/19 01:30:12;;;;;;;4.28;2.10;;;24.10;39.00;;;;;;5039562;28;20044;-50
2022/07/19 01:32:40;;;;;;;7.20;2.13;;;24.00;39.20;;;;;;5040537;28;20065;-50
2022/07/19 01:35:08;;;;;;;6.53;1.90;;;24.10;39.20;;;;;;5041225;28;20053;-51
2022/07/19 01:37:36;;;;;;;2.85;1.98;;;24.00;39.20;;;;;;5037244;28;20056;-51
2022/07/19 01:40:08;;;;;;;4.05;2.00;;;24.00;39.30;;;;;;5037685;28;20041;-51
2022/07/19 01:42:35;;;;;;;7.32;2.15;;;24.00;39.60;;;;;;5040556;28;20069;-49
2022/07/19 01:45:03;;;;;;;4.03;1.98;;;24.00;39.50;;;;;;5038445;28;20079;-51
2022/07/19 01:47:31;;;;;;;4.07;2.10;;;23.90;39.40;;;;;;5036000;28;20065;-50
2022/07/19 01:49:58;;;;;;;4.22;2.00;;;23.90;39.40;;;;;;5040869;28;20503;-47
2022/07/19 01:52:26;;;;;;;3.53;2.42;;;23.90;39.60;;;;;;5042397;28;20436;-50
2022/07/19 01:54:53;;;;;;;4.82;2.33;;;23.80;39.60;;;;;;5040915;28;20057;-54
2022/07/19 01:57:23;;;;;;;3.78;1.95;;;23.80;39.60;;;;;;5040139;28;20426;-47
2022/07/19 01:59:50;;;;;;;2.88;2.15;;;23.80;39.70;;;;;;5040067;28;20056;-49
2022/07/19 02:02:18;;;;;;;4.43;2.08;;;23.70;39.70;;;;;;5040358;28;20623;-51
2022/07/19 02:04:45;;;;;;;4.00;2.22;;;23.70;39.80;;;;;;5040943;28;20057;-51
2022/07/19 02:07:12;;;;;;;3.20;1.83;;;23.70;39.90;;;;;;5037667;28;20425;-49
2022/07/19 02:09:40;;;;;;;3.25;1.90;;;23.60;40.00;;;;;;5042021;28;20488;-50
2022/07/19 02:12:07;;;;;;;6.80;1.92;;;23.60;39.90;;;;;;5042103;28;20057;-53
2022/07/19 02:14:36;;;;;;;7.05;2.22;;;23.60;40.00;;;;;;5040918;28;20489;-49
2022/07/19 02:17:05;;;;;;;4.60;2.40;;;23.50;40.00;;;;;;5033822;28;20057;-47
2022/07/19 02:19:32;;;;;;;4.63;1.90;;;23.50;40.00;;;;;;5037995;28;20053;-48
2022/07/19 02:22:00;;;;;;;5.43;2.45;;;23.50;40.10;;;;;;5035688;28;20045;-50
2022/07/19 02:24:27;;;;;;;13.75;2.40;;;23.50;40.00;;;;;;5036291;28;20053;-53
2022/07/19 02:26:55;;;;;;;5.28;2.38;;;23.40;40.20;;;;;;5035395;28;20060;-49
2022/07/19 02:29:22;;;;;;;2.70;1.77;;;23.40;40.20;;;;;;5040386;28;20063;-48
2022/07/19 02:31:51;;;;;;;2.92;1.98;;;23.40;40.40;;;;;;5037567;28;20143;-48
2022/07/19 02:34:18;;;;;;;4.65;2.33;;;23.40;40.60;;;;;;5034324;28;20045;-53
2022/07/19 02:36:46;;;;;;;4.63;2.08;;;23.30;41.10;;;;;;5034888;28;20058;-48
2022/07/19 02:39:14;;;;;;;3.42;1.98;;;23.30;40.50;;;;;;5039328;28;20052;-50
2022/07/19 02:41:41;;;;;;;4.70;2.40;;;23.30;40.60;;;;;;5042637;28;20416;-47
2022/07/19 02:44:09;;;;;;;4.35;2.30;;;23.30;40.80;;;;;;5038613;28;20049;-52
2022/07/19 02:46:39;;;;;;;3.80;2.13;;;23.20;40.60;;;;;;5036123;28;20049;-50
2022/07/19 02:49:08;;;;;;;3.90;1.88;;;23.20;40.90;;;;;;5035746;28;20045;-50
2022/07/19 02:51:35;;;;;;;3.65;2.20;;;23.20;41.00;;;;;;5039142;28;20068;-53
2022/07/19 02:54:03;;;;;;;4.45;2.25;;;23.10;40.90;;;;;;5041830;28;20060;-49
2022/07/19 02:56:30;;;;;;;7.13;2.28;;;23.10;40.90;;;;;;5040035;28;20049;-49
2022/07/19 02:58:58;;;;;;;4.90;2.13;;;23.10;40.90;;;;;;5044451;28;20060;-51
2022/07/19 03:01:26;;;;;;;6.90;2.30;;;23.10;40.90;;;;;;5043482;28;20053;-49
2022/07/19 03:03:53;;;;;;;6.32;2.30;;;23.00;41.10;;;;;;5041806;28;20053;-50
2022/07/19 03:06:22;;;;;;;9.55;2.00;;;23.00;41.10;;;;;;5039166;28;20060;-51
2022/07/19 03:08:50;;;;;;;4.75;2.05;;;23.00;41.30;;;;;;5039834;28;20041;-53
2022/07/19 03:11:17;;;;;;;2.63;1.95;;;22.90;41.20;;;;;;5044304;28;20056;-50
2022/07/19 03:13:45;;;;;;;3.63;2.30;;;22.90;41.20;;;;;;5044931;28;20520;-47
2022/07/19 03:16:12;;;;;;;3.90;2.10;;;22.80;41.20;;;;;;5040282;28;20055;-48
2022/07/19 03:18:40;;;;;;;2.70;1.83;;;22.80;41.40;;;;;;5042096;28;20067;-54
2022/07/19 03:21:08;;;;;;;4.13;1.95;;;22.80;41.60;;;;;;5043895;28;20053;-52
2022/07/19 03:23:37;;;;;;;3.58;2.30;;;22.80;41.60;;;;;;5044669;28;20059;-48
2022/07/19 03:26:06;;;;;;;2.70;1.80;;;22.80;41.50;;;;;;5039189;28;20049;-55
2022/07/19 03:28:34;;;;;;;2.83;2.13;;;22.70;41.50;;;;;;5041072;28;20060;-50
2022/07/19 03:31:01;;;;;;;5.13;2.40;;;22.70;41.70;;;;;;5037585;28;20045;-49
2022/07/19 03:33:29;;;;;;;6.53;2.47;;;22.60;41.70;;;;;;5036025;28;20640;-50
2022/07/19 03:35:57;;;;;;;6.18;2.30;;;22.60;41.80;;;;;;5037558;28;20053;-54
2022/07/19 03:38:24;;;;;;;8.52;2.25;;;22.60;41.70;;;;;;5044360;28;20417;-49
2022/07/19 03:40:53;;;;;;;3.28;2.15;;;22.60;41.60;;;;;;5037180;28;20080;-47
2022/07/19 03:43:23;;;;;;;6.30;2.70;;;22.60;41.70;;;;;;5041369;28;20515;-49
2022/07/19 03:45:50;;;;;;;4.10;2.20;;;22.50;41.70;;;;;;5041315;28;20045;-50
2022/07/19 03:48:18;;;;;;;6.22;2.22;;;22.50;41.80;;;;;;5042128;28;20049;-48
2022/07/19 03:50:46;;;;;;;4.55;2.28;;;22.40;41.90;;;;;;5042423;28;20053;-52
2022/07/19 03:53:13;;;;;;;3.78;1.70;;;22.50;41.90;;;;;;5043739;28;20501;-52
2022/07/19 03:55:41;;;;;;;2.83;2.08;;;22.40;41.90;;;;;;5039642;28;20049;-48
2022/07/19 03:58:10;;;;;;;5.82;2.40;;;22.40;41.80;;;;;;5042780;28;20056;-51
2022/07/19 04:00:37;;;;;;;4.45;2.20;;;22.40;41.90;;;;;;5037882;28;20488;-49
2022/07/19 04:03:05;;;;;;;4.63;2.17;;;22.40;41.90;;;;;;5041861;28;20481;-53
2022/07/19 04:05:32;;;;;;;4.57;1.90;;;22.40;41.80;;;;;;5041983;28;20527;-49
2022/07/19 04:08:00;;;;;;;3.08;2.20;;;22.40;41.90;;;;;;5040625;28;20045;-48
2022/07/19 04:10:27;;;;;;;2.92;2.05;;;22.40;41.80;;;;;;5042018;28;20059;-52
2022/07/19 04:12:55;;;;;;;3.63;2.00;;;22.40;41.90;;;;;;5037268;28;20073;-48
2022/07/19 04:15:23;;;;;;;3.63;2.00;;;22.40;41.90;;;;;;5040616;28;20056;-47
2022/07/19 04:17:51;;;;;;;5.13;2.40;;;22.40;41.90;;;;;;5031954;28;20048;-47
2022/07/19 04:20:19;;;;;;;2.83;1.80;;;22.40;41.80;;;;;;5039646;28;20385;-46
2022/07/19 04:22:46;;;;;;;5.65;2.05;;;22.40;41.80;;;;;;5044404;28;20068;-49
2022/07/19 04:25:13;;;;;;;3.67;2.35;;;22.40;42.00;;;;;;5044581;28;20389;-47
2022/07/19 04:27:41;;;;;;;3.72;2.25;;;22.40;42.00;;;;;;5040612;28;20052;-46
2022/07/19 04:30:09;;;;;;;5.05;2.00;;;22.30;42.00;;;;;;5039927;28;20347;-48
2022/07/19 04:32:38;;;;;;;4.68;2.30;;;22.40;41.80;;;;;;5029296;28;20418;-46
2022/07/19 04:35:07;;;;;;;3.50;1.98;;;22.30;41.70;;;;;;5034735;28;20061;-47
2022/07/19 04:37:34;;;;;;;8.05;2.78;;;22.30;41.80;;;;;;5029902;28;20064;-46
2022/07/19 04:40:02;;;;;;;9.45;4.18;;;22.40;41.80;;;;;;5033105;28;20044;-47
2022/07/19 04:42:29;;;;;;;5.32;2.60;;;22.30;41.90;;;;;;5042486;28;20060;-47
2022/07/19 04:44:57;;;;;;;4.00;2.20;;;22.40;42.00;;;;;;5040882;28;20057;-47
2022/07/19 04:47:24;;;;;;;5.88;2.20;;;22.40;42.00;;;;;;5036449;28;20076;-47
2022/07/19 04:49:53;;;;;;;4.60;2.13;;;22.40;41.90;;;;;;5039760;28;20045;-45
2022/07/19 04:52:20;;;;;;;3.78;2.00;;;22.40;41.90;;;;;;5037604;28;20052;-44
2022/07/19 04:54:48;;;;;;;3.10;2.20;;;22.40;41.90;;;;;;5036445;28;20386;-47
2022/07/19 04:57:15;;;;;;;6.47;2.03;;;22.50;41.90;;;;;;5036779;28;20476;-45
2022/07/19 04:59:43;;;;;;;6.20;2.38;;;22.40;42.00;;;;;;5033850;28;20053;-48
2022/07/19 05:02:10;;;;;;;3.55;1.88;;;22.50;41.90;;;;;;5036496;28;20056;-48
2022/07/19 05:04:38;;;;;;;4.13;2.08;;;22.50;41.80;;;;;;5037909;28;20054;-47
2022/07/19 05:07:07;;;;;;;3.10;1.70;;;22.50;41.80;;;;;;5038816;28;20075;-45
2022/07/19 05:09:34;;;;;;;5.43;1.60;;;22.50;41.80;;;;;;5037978;28;20056;-46
2022/07/19 05:12:05;;;;;;;3.58;1.80;;;22.50;41.70;;;;;;5037297;28;20127;-50
2022/07/19 05:14:32;;;;;;;6.43;2.13;;;22.60;41.80;;;;;;5038602;28;20405;-45
2022/07/19 05:17:00;;;;;;;3.97;1.88;;;22.60;41.80;;;;;;5037022;28;20075;-45
2022/07/19 05:19:27;;;;;;;9.00;2.50;;;22.60;41.60;;;;;;5034152;28;20060;-45
2022/07/19 05:21:55;;;;;;;5.05;2.25;;;22.60;41.60;;;;;;5038838;28;20497;-47
2022/07/19 05:24:24;;;;;;;3.75;2.17;;;22.60;41.60;;;;;;5038420;28;20508;-47
2022/07/19 05:26:51;;;;;;;5.25;2.15;;;22.70;41.60;;;;;;5037143;28;20060;-51
2022/07/19 05:29:19;;;;;;;4.68;2.10;;;22.70;41.70;;;;;;5040241;28;20065;-48
2022/07/19 05:31:46;;;;;;;4.72;2.20;;;22.70;41.60;;;;;;5038728;28;20063;-48
2022/07/19 05:34:14;;;;;;;7.50;2.10;;;22.80;41.60;;;;;;5038327;28;20059;-48
2022/07/19 05:36:41;;;;;;;3.42;1.90;;;22.80;41.60;;;;;;5038581;28;20057;-47
2022/07/19 05:39:08;;;;;;;6.00;2.00;;;22.80;41.70;;;;;;5038025;28;20052;-51
2022/07/19 05:41:37;;;;;;;4.95;1.95;;;22.90;41.70;;;;;;5039124;28;20059;-46
2022/07/19 05:44:05;;;;;;;5.05;2.00;;;22.90;41.70;;;;;;5041079;28;20057;-50
2022/07/19 05:46:32;;;;;;;4.90;1.77;;;22.90;41.60;;;;;;5037468;28;20053;-49
2022/07/19 05:49:01;;;;;;;4.50;1.92;;;23.00;41.70;;;;;;5039621;28;20123;-46
2022/07/19 05:51:29;;;;;;;4.10;2.20;;;23.00;41.90;;;;;;5038997;28;20508;-49
2022/07/19 05:53:56;;;;;;;4.50;2.20;;;23.10;42.00;;;;;;5040180;28;20049;-47
2022/07/19 05:56:23;;;;;;;5.28;2.00;;;23.10;42.20;;;;;;5038164;28;20060;-44
2022/07/19 05:58:53;;;;;;;3.17;1.85;;;23.20;42.30;;;;;;5037634;28;20076;-49
2022/07/19 06:01:22;;;;;;;2.78;1.92;;;23.20;42.10;;;;;;5034830;28;20049;-46
2022/07/19 06:03:52;;;;;;;4.25;2.10;;;23.30;42.50;;;;;;5037970;28;20052;-46
2022/07/19 06:06:20;;;;;;;4.10;1.92;;;23.40;42.50;;;;;;5036952;28;20059;-44
2022/07/19 06:08:48;;;;;;;4.70;1.55;;;23.40;42.20;;;;;;5039568;28;20057;-48
2022/07/19 06:11:16;;;;;;;3.92;1.63;;;23.50;42.30;;;;;;5036848;28;20053;-45
2022/07/19 06:13:45;;;;;;;3.13;1.85;;;23.50;42.50;;;;;;5039380;28;20053;-45
2022/07/19 06:16:14;;;;;;;17.23;2.85;;;23.60;42.50;;;;;;5036884;28;20424;-45
2022/07/19 06:18:42;;;;;;;4.88;1.90;;;23.70;42.40;;;;;;5039391;28;20738;-48
2022/07/19 06:21:14;;;;;;;4.72;2.10;;;23.70;42.20;;;;;;5039260;28;20083;-45
2022/07/19 06:23:42;;;;;;;3.05;1.65;;;23.80;42.30;;;;;;5041820;28;20056;-49
2022/07/19 06:26:11;;;;;;;5.45;2.15;;;23.90;42.30;;;;;;5038902;28;20049;-44
2022/07/19 06:28:39;;;;;;;2.97;1.92;;;24.00;41.90;;;;;;5039844;28;20073;-44
2022/07/19 06:31:08;;;;;;;3.88;1.92;;;24.00;41.80;;;;;;5036598;28;20417;-46
2022/07/19 06:33:37;;;;;;;4.50;1.70;;;24.10;41.70;;;;;;5041707;28;20045;-46
2022/07/19 06:36:05;;;;;;;4.57;2.25;;;24.20;41.80;;;;;;5042005;28;20516;-44
2022/07/19 06:38:33;;;;;;;5.55;2.25;;;24.20;41.40;;;;;;5040202;28;20060;-45
2022/07/19 06:41:00;;;;;;;2.25;1.85;;;24.30;41.50;;;;;;5041097;28;20045;-46
2022/07/19 06:46:08;;;;;;;6.65;2.03;;;24.40;41.60;;;;;;5054160;27;21317;-46
2022/07/19 06:48:36;;;;;;;12.18;2.03;;;24.50;41.60;;;;;;5039356;28;20060;-49
2022/07/19 06:51:05;;;;;;;5.22;2.15;;;24.60;41.60;;;;;;5038097;28;20061;-46
2022/07/19 06:53:33;;;;;;;5.60;1.98;;;24.70;41.40;;;;;;5037629;28;20052;-50
2022/07/19 06:56:01;;;;;;;3.47;1.83;;;24.70;41.00;;;;;;5036056;28;20115;-47
2022/07/19 06:58:29;;;;;;;3.08;1.88;;;24.80;40.90;;;;;;5036240;28;20516;-47
2022/07/19 07:00:57;;;;;;;6.70;2.22;;;24.90;40.90;;;;;;5035724;28;20486;-46
2022/07/19 07:03:26;;;;;;;2.92;2.10;;;25.00;40.90;;;;;;5036290;28;20421;-46
2022/07/19 07:05:53;;;;;;;6.18;2.50;;;25.10;41.00;;;;;;5036596;28;20398;-48
2022/07/19 07:08:21;;;;;;;4.30;2.50;;;25.10;41.10;;;;;;5038096;28;20131;-46
2022/07/19 07:10:48;;;;;;;3.45;1.92;;;25.20;41.00;;;;;;5038234;28;20072;-48
2022/07/19 07:13:16;;;;;;;4.13;1.95;;;25.30;40.90;;;;;;5038019;28;20069;-47
2022/07/19 07:15:43;;;;;;;3.38;2.13;;;25.40;40.90;;;;;;5034753;28;20519;-48
2022/07/19 07:18:11;;;;;;;6.07;2.15;;;25.50;41.00;;;;;;5037183;28;20061;-46
2022/07/19 07:20:39;;;;;;;10.25;2.17;;;25.60;40.70;;;;;;5037267;28;20472;-46
2022/07/19 07:23:07;;;;;;;5.53;1.85;;;25.70;40.40;;;;;;5037748;28;20061;-49
2022/07/19 07:25:35;;;;;;;7.80;2.58;;;25.70;40.30;;;;;;5034782;28;20052;-46
2022/07/19 07:28:02;;;;;;;12.15;2.97;;;25.80;40.10;;;;;;5037560;28;20061;-49
2022/07/19 07:30:29;;;;;;;3.65;2.35;;;25.90;40.00;;;;;;5033090;28;20420;-46
2022/07/19 07:32:57;;;;;;;5.50;2.55;;;26.00;39.90;;;;;;5034742;28;20060;-48
2022/07/19 07:35:25;;;;;;;3.80;2.33;;;26.10;40.00;;;;;;5036219;28;20057;-46
2022/07/19 07:37:54;;;;;;;4.20;1.92;;;26.20;39.90;;;;;;5036744;28;20057;-51
2022/07/19 07:40:21;;;;;;;5.55;1.90;;;26.30;39.80;;;;;;5029594;28;20057;-46
2022/07/19 07:42:49;;;;;;;3.05;1.52;;;26.40;40.20;;;;;;5035975;28;20076;-47
2022/07/19 07:45:16;;;;;;;3.08;1.77;;;26.50;39.70;;;;;;5036576;28;20053;-46
2022/07/19 07:47:44;;;;;;;5.55;2.00;;;26.50;39.70;;;;;;5036356;28;20503;-46
2022/07/19 07:50:11;;;;;;;4.63;2.00;;;26.60;40.00;;;;;;5032025;28;20057;-46
2022/07/19 07:52:39;;;;;;;5.35;2.00;;;26.70;39.90;;;;;;5037085;28;20052;-46
2022/07/19 07:55:09;;;;;;;4.05;2.13;;;26.80;40.00;;;;;;5036078;28;20053;-49
2022/07/19 07:57:36;;;;;;;6.93;1.90;;;26.90;40.10;;;;;;5020069;28;20049;-48
2022/07/19 08:00:06;;;;;;;5.90;2.33;;;27.00;39.80;;;;;;5022181;28;20049;-50
2022/07/19 08:02:39;;;;;;;14.52;2.10;;;27.10;39.70;;;;;;5021699;28;20073;-47
2022/07/19 08:05:07;;;;;;;5.47;2.10;;;27.30;39.70;;;;;;5023945;28;20057;-47
2022/07/19 08:07:34;;;;;;;3.58;1.98;;;27.40;39.70;;;;;;5019213;28;20057;-47
2022/07/19 08:10:03;;;;;;;3.20;1.55;;;27.40;39.30;;;;;;5023102;28;20073;-49
2022/07/19 08:12:31;;;;;;;5.93;1.65;;;27.60;39.30;;;;;;5021873;28;20497;-51
2022/07/19 08:14:59;;;;;;;4.72;1.90;;;27.70;38.80;;;;;;5021978;28;20061;-50
2022/07/19 08:17:27;;;;;;;3.80;2.15;;;27.80;38.60;;;;;;5020799;28;20080;-47
2022/07/19 08:19:54;;;;;;;4.65;1.70;;;27.90;38.40;;;;;;5022394;28;20413;-49
2022/07/19 08:22:22;;;;;;;5.97;1.50;;;28.00;38.00;;;;;;5024179;28;20061;-46
2022/07/19 08:24:49;;;;;;;3.55;1.63;;;28.20;37.80;;;;;;5023425;28;20045;-49
2022/07/19 08:27:17;;;;;;;4.20;2.00;;;28.20;37.40;;;;;;5015917;28;20057;-47
2022/07/19 08:29:46;;;;;;;9.02;2.03;;;28.40;37.40;;;;;;5013144;28;20497;-48
2022/07/19 08:32:14;;;;;;;3.05;1.98;;;28.50;37.00;;;;;;5022245;28;20477;-46
2022/07/19 08:34:41;;;;;;;9.18;1.77;;;28.60;36.80;;;;;;5022207;28;20057;-48
2022/07/19 08:37:09;;;;;;;4.70;1.63;;;28.70;36.30;;;;;;5020208;28;20061;-51
2022/07/19 08:39:36;;;;;;;3.22;1.55;;;28.80;35.40;;;;;;5013822;28;20056;-49
2022/07/19 08:42:04;;;;;;;5.70;1.85;;;28.90;35.50;;;;;;5015232;28;20060;-50
2022/07/19 08:44:35;;;;;;;3.50;1.50;;;29.00;34.90;;;;;;5016281;28;20053;-46
2022/07/19 08:47:05;;;;;;;6.68;1.77;;;29.10;34.50;;;;;;5019554;28;20508;-47
2022/07/19 08:49:33;;;;;;;3.83;1.95;;;29.20;35.00;;;;;;5019045;28;20061;-45
2022/07/19 08:52:02;;;;;;;6.72;1.83;;;29.30;35.10;;;;;;5016811;28;20524;-49
2022/07/19 08:54:29;;;;;;;3.88;1.52;;;29.40;35.10;;;;;;5019226;28;20053;-46
2022/07/19 08:59:42;;;;;;;8.30;1.95;;;29.60;34.20;;;;;;5028370;28;20061;-46
2022/07/19 09:02:11;;;;;;;6.63;1.90;;;29.80;33.70;;;;;;5022066;28;20053;-46
2022/07/19 09:04:38;;;;;;;6.60;1.67;;;29.90;33.50;;;;;;5018055;28;20057;-57
2022/07/19 09:07:06;;;;;;;2.58;1.40;;;30.00;33.30;;;;;;5018924;28;20052;-47
2022/07/19 09:09:36;;;;;;;3.58;1.67;;;30.10;33.20;;;;;;5018032;28;20435;-46
2022/07/19 09:12:06;;;;;;;5.53;1.65;;;30.10;32.90;;;;;;5018664;28;20050;-46
2022/07/19 09:14:35;;;;;;;8.13;1.92;;;30.30;33.10;;;;;;5020600;28;20064;-48
2022/07/19 09:17:06;;;;;;;4.90;1.70;;;30.30;32.80;;;;;;5019716;28;20057;-47
2022/07/19 09:19:37;;;;;;;3.28;1.52;;;30.50;32.90;;;;;;5022091;28;20405;-47
2022/07/19 09:22:06;;;;;;;3.88;1.60;;;30.50;32.30;;;;;;5022874;28;20060;-52
2022/07/19 09:24:35;;;;;;;3.63;1.85;;;30.70;32.00;;;;;;5019797;28;20057;-48
2022/07/19 09:27:06;;;;;;;3.70;1.73;;;30.70;31.40;;;;;;5020454;28;20056;-49
2022/07/19 09:29:37;;;;;;;3.90;1.63;;;30.80;31.50;;;;;;5023028;28;20057;-48
2022/07/19 09:32:11;;;;;;;5.25;1.55;;;30.90;31.00;;;;;;5017697;28;20064;-49
2022/07/19 09:34:42;;;;;;;2.22;1.50;;;30.90;31.10;;;;;;5018099;28;20413;-46
2022/07/19 09:37:15;;;;;;;6.43;1.58;;;31.00;30.90;;;;;;5015694;28;20058;-48
2022/07/19 09:39:45;;;;;;;5.07;2.20;;;31.10;30.70;;;;;;5019327;28;20428;-47
2022/07/19 09:42:15;;;;;;;4.55;2.40;;;31.20;30.70;;;;;;5018394;28;20493;-46
2022/07/19 09:44:42;;;;;;;2.45;1.95;;;31.30;30.40;;;;;;5022821;28;20064;-49
2022/07/19 09:47:10;;;;;;;6.07;1.50;;;31.30;30.20;;;;;;5017624;28;20049;-50
2022/07/19 09:49:37;;;;;;;3.10;1.88;;;31.40;30.10;;;;;;5020602;28;20057;-48
2022/07/19 09:52:08;;;;;;;3.85;1.95;;;31.40;29.90;;;;;;5019413;28;20053;-47
2022/07/19 09:54:35;;;;;;;2.67;1.50;;;31.50;29.50;;;;;;5023500;28;20060;-50
2022/07/19 09:57:03;;;;;;;12.45;6.93;;;31.60;29.60;;;;;;5015707;28;20057;-48
2022/07/19 09:59:31;;;;;;;12.88;8.52;;;31.60;29.70;;;;;;5016799;28;20054;-47
2022/07/19 10:01:59;;;;;;;10.18;2.95;;;31.60;29.50;;;;;;5016650;28;20509;-48
2022/07/19 10:04:27;;;;;;;9.23;2.60;;;31.70;29.20;;;;;;5015395;28;20054;-48
2022/07/19 10:06:55;;;;;;;3.60;1.70;;;31.70;29.40;;;;;;5016678;28;20053;-46
2022/07/19 10:09:24;;;;;;;5.00;2.00;;;31.80;29.60;;;;;;5017234;28;20049;-48
2022/07/19 10:11:56;;;;;;;3.42;1.70;;;31.90;28.90;;;;;;5021498;28;20057;-49
2022/07/19 10:14:23;;;;;;;5.05;1.60;;;32.00;28.90;;;;;;5020534;28;20079;-57
2022/07/19 10:17:09;;;;;;;6.13;1.75;;;32.00;28.90;;;;;;5017196;28;20413;-53
2022/07/19 10:19:40;;;;;;;3.70;1.75;;;32.10;28.40;;;;;;5020958;28;20064;-46
2022/07/19 10:22:11;;;;;;;6.45;1.98;;;32.20;28.30;;;;;;5021201;28;20516;-49
2022/07/19 10:24:49;;;;;;;5.00;1.75;;;32.30;28.10;;;;;;5021457;28;20056;-48
2022/07/19 10:27:18;;;;;;;2.70;1.52;;;32.40;27.60;;;;;;5019530;28;20049;-48
2022/07/19 10:29:46;;;;;;;9.93;2.15;;;32.50;28.00;;;;;;5020090;28;20079;-48
2022/07/19 10:32:15;;;;;;;3.53;1.70;;;32.50;27.90;;;;;;5017696;28;20057;-48
2022/07/19 10:34:45;;;;;;;4.50;1.50;;;32.50;27.90;;;;;;5018134;28;20485;-51
2022/07/19 10:37:13;;;;;;;4.20;1.92;;;32.60;27.80;;;;;;5019866;28;20056;-48
2022/07/19 10:39:41;;;;;;;8.40;1.83;;;32.60;27.40;;;;;;5017819;28;20513;-47
2022/07/19 10:42:17;;;;;;;4.10;1.60;;;32.70;27.70;;;;;;5019587;28;20049;-52
2022/07/19 10:45:14;;;;;;;3.20;1.63;;;32.70;27.60;;;;;;5018546;28;20057;-47
2022/07/19 10:48:10;;;;;;;3.78;2.10;;;32.80;27.70;;;;;;5019880;28;20049;-49
2022/07/19 10:50:46;;;;;;;7.13;4.13;;;32.90;27.40;;;;;;5021609;28;20050;-50
2022/07/19 10:53:43;;;;;;;11.50;2.20;;;33.00;27.70;;;;;;5022254;28;20509;-49
2022/07/19 10:56:21;;;;;;;2.67;1.50;;;33.00;27.90;;;;;;5019389;28;20056;-50
2022/07/19 10:58:52;;;;;;;3.20;1.60;;;33.10;26.80;;;;;;5021953;28;20062;-48
2022/07/19 11:01:21;;;;;;;4.47;1.55;;;33.10;27.00;;;;;;5019708;28;20060;-53
2022/07/19 11:03:49;;;;;;;3.83;1.60;;;33.20;26.70;;;;;;5013101;28;20050;-61
2022/07/19 11:06:21;;;;;;;4.50;1.80;;;33.20;26.70;;;;;;5015633;28;20053;-55
2022/07/19 11:08:52;;;;;;;3.35;1.65;;;33.20;26.40;;;;;;5017235;28;20049;-52
2022/07/19 11:11:20;;;;;;;6.18;2.08;;;33.20;26.50;;;;;;5019418;28;20053;-55
2022/07/19 11:13:52;;;;;;;2.80;1.67;;;33.20;26.50;;;;;;5019180;28;20405;-64
2022/07/19 11:16:20;;;;;;;2.08;1.45;;;33.20;25.90;;;;;;5015432;28;20049;-50
2022/07/19 11:18:48;;;;;;;3.03;1.50;;;33.20;25.80;;;;;;5015604;28;20057;-54
2022/07/19 11:21:17;;;;;;;2.88;1.80;;;33.20;25.60;;;;;;5021393;28;20054;-49
2022/07/19 11:23:46;;;;;;;7.85;1.98;;;33.20;25.80;;;;;;5018944;28;20057;-54
2022/07/19 11:26:15;;;;;;;3.28;1.70;;;33.20;25.80;;;;;;5015910;28;20053;-51
2022/07/19 11:28:45;;;;;;;3.42;2.00;;;33.30;25.90;;;;;;5019717;28;20053;-60
2022/07/19 11:31:16;;;;;;;8.23;2.50;;;33.30;25.90;;;;;;5020618;28;20053;-59
2022/07/19 11:33:45;;;;;;;4.72;2.20;;;33.30;25.90;;;;;;5021159;28;20504;-55
2022/07/19 11:36:15;;;;;;;6.30;2.17;;;33.20;26.10;;;;;;5019849;28;20481;-51
2022/07/19 11:38:44;;;;;;;5.22;1.75;;;33.30;26.30;;;;;;5024197;28;20053;-49
2022/07/19 11:41:18;;;;;;;3.65;1.88;;;33.40;25.90;;;;;;5024931;28;20053;-53
2022/07/19 11:43:52;;;;;;;4.07;2.05;;;33.40;25.80;;;;;;5023979;28;20072;-47
2022/07/19 11:46:22;;;;;;;3.20;1.88;;;33.50;25.70;;;;;;5016523;28;20049;-51
2022/07/19 11:48:50;;;;;;;3.92;1.85;;;33.60;26.00;;;;;;5021582;28;20505;-52
2022/07/19 11:51:17;;;;;;;4.13;2.05;;;33.70;25.90;;;;;;5020555;28;20046;-46
2022/07/19 11:53:51;;;;;;;5.85;2.20;;;33.70;25.80;;;;;;5023905;28;20053;-50
2022/07/19 11:56:20;;;;;;;3.83;2.13;;;33.80;26.10;;;;;;5020505;28;20049;-63
2022/07/19 11:58:49;;;;;;;5.93;1.98;;;33.90;26.00;;;;;;5021256;28;20049;-50
2022/07/19 12:01:26;;;;;;;3.53;1.95;;;33.90;25.60;;;;;;5023421;28;20053;-47
2022/07/19 12:03:54;;;;;;;5.72;2.45;;;34.00;25.30;;;;;;5024546;28;20049;-48
2022/07/19 12:06:36;;;;;;;9.68;1.90;;;34.10;25.80;;;;;;5019340;28;20406;-49
2022/07/19 12:09:06;;;;;;;5.97;1.98;;;34.20;25.30;;;;;;5024291;28;20053;-60
2022/07/19 12:11:40;;;;;;;3.47;1.95;;;34.20;25.50;;;;;;5021520;28;20060;-51
2022/07/19 12:14:21;;;;;;;2.53;1.90;;;34.30;25.70;;;;;;5022127;28;20060;-50
2022/07/19 12:17:08;;;;;;;2.50;1.63;;;34.30;25.70;;;;;;5014445;28;20053;-57
2022/07/19 12:19:36;;;;;;;8.98;2.33;;;34.40;25.40;;;;;;5022811;28;20069;-60
2022/07/19 12:22:03;;;;;;;6.85;2.08;;;34.40;25.50;;;;;;5022538;28;20374;-57
2022/07/19 12:24:31;;;;;;;3.75;2.17;;;34.40;25.50;;;;;;5023372;28;20049;-51
2022/07/19 12:27:02;;;;;;;4.38;2.35;;;34.40;25.60;;;;;;5018460;28;20053;-59
2022/07/19 12:29:31;;;;;;;4.07;2.00;;;34.50;25.70;;;;;;5022330;28;20054;-62
2022/07/19 12:32:02;;;;;;;5.22;2.17;;;34.40;25.60;;;;;;5019531;28;20046;-48
2022/07/19 12:34:30;;;;;;;7.18;2.60;;;34.50;25.50;;;;;;5024100;28;20053;-49
2022/07/19 12:36:58;;;;;;;3.75;1.88;;;34.50;25.30;;;;;;5020896;28;20056;-49
2022/07/19 12:39:29;;;;;;;3.78;2.08;;;34.40;25.30;;;;;;5022963;28;20061;-60
2022/07/19 12:42:03;;;;;;;3.50;2.00;;;34.50;25.20;;;;;;5022666;28;20069;-53
2022/07/19 12:44:33;;;;;;;5.25;2.20;;;34.50;25.10;;;;;;5023588;28;20060;-48
2022/07/19 12:47:06;;;;;;;4.10;2.03;;;34.40;25.50;;;;;;5016661;28;20448;-52
2022/07/19 12:49:50;;;;;;;2.60;1.85;;;34.40;24.90;;;;;;5020964;28;20140;-60
2022/07/19 12:52:18;;;;;;;;;;;34.40;25.00;;;;;;5020376;28;20060;-51
2022/07/19 12:54:46;;;;;;;6.00;2.28;;;34.50;25.60;;;;;;5024114;28;19932;-52
2022/07/19 12:57:14;;;;;;;8.27;2.30;;;34.50;24.90;;;;;;5013861;28;20072;-49
2022/07/19 12:59:42;;;;;;;3.88;2.08;;;34.40;24.60;;;;;;5016407;28;20057;-52
2022/07/19 13:02:12;;;;;;;8.98;2.22;;;34.50;24.50;;;;;;5020530;28;20060;-60